Latest Weather Observations for Beaudesert AWS

IDQ60801

Issued at 1:02 pm EST Friday 18 August 2017 (issued every 30 minutes, with the page automatically refreshed every 10 minutes)

About weather observations | Map of weather stations | Latest weather observations for QLD | Other Formats
Station Details ID: 040983 Name: BEAUDESERT DRUMLEY STREET Lat: -27.97 Lon: 152.99 Height: 47.81 m
Data from the previous 72 hours. | See also: Recent months at Beaudesert AWS
Date/Time
EST
Temp
°C
App
Temp
°C
Dew
Point
°C
Rel
Hum
%
Delta-T
°C
Wind Press
QNH
hPa
Press
MSL
hPa
Rain since
9am
mm
Dir  Spd
km/h
Gust
km/h
Spd
kts
Gust
kts
18/01:00pm 24.1 16.9 -2.4 17 11.6 W 26 39 14 21 1011.4 1011.4 0.0
18/12:31pm 24.0 16.1 -1.8 18 11.4 WNW 30 54 16 29 1011.7 1011.7 0.0
18/12:30pm 24.0 16.4 -2.5 17 11.6 WNW 28 44 15 24 1011.7 1011.7 0.0
18/12:00pm 24.0 18.2 -0.3 20 11.1 W 20 37 11 20 1012.2 1012.2 0.0
18/11:30am 24.1 18.5 1.1 22 10.7 W 20 33 11 18 1012.8 1012.8 0.0
18/11:00am 23.2 17.6 -0.3 21 10.6 W 19 30 10 16 1013.3 1013.3 0.0
18/10:30am 22.9 16.7 -0.6 21 10.5 W 22 32 12 17 1013.7 1013.7 0.0
18/10:00am 23.0 16.8 -0.5 21 10.6 WSW 22 37 12 20 1014.0 1014.0 0.0
18/09:41am 22.6 17.4 -0.2 22 10.3 W 17 35 9 19 1014.3 1014.3 0.0
18/09:30am 21.7 19.2 1.4 26 9.4 WSW 4 7 2 4 1014.5 1014.5 0.0
18/09:00am 20.3 17.7 3.1 32 8.1 NW 6 7 3 4 1014.7 1014.7 0.0
18/08:30am 15.8 14.8 7.3 57 4.2 NNW 2 6 1 3 1014.9 1014.9 0.0
18/08:00am 12.7 11.5 6.5 66 3.0 N 2 4 1 2 1014.9 1014.9 0.0
18/07:30am 9.2 8.2 5.4 77 1.7 CALM 0 0 0 0 1014.6 1014.6 0.0
18/07:00am 6.7 5.5 4.5 86 1.0 CALM 0 2 0 1 1014.3 1014.3 0.0
18/06:30am 5.2 3.3 2.7 84 1.0 NE 2 6 1 3 1014.1 1014.1 0.0
18/06:00am 5.6 3.7 2.9 83 1.1 NE 2 6 1 3 1013.9 1013.9 0.0
18/05:30am 5.2 3.2 2.4 82 1.1 NE 2 6 1 3 1013.6 1013.6 0.0
18/05:00am 5.8 4.4 3.8 87 0.8 CALM 0 0 0 0 1013.2 1013.2 0.0
18/04:30am 6.7 5.6 4.9 88 0.8 CALM 0 0 0 0 1012.9 1012.9 0.0
18/04:00am 6.1 4.7 3.3 82 1.2 CALM 0 0 0 0 1012.7 1012.7 0.0
18/03:30am 7.5 6.2 4.3 80 1.4 CALM 0 0 0 0 1012.4 1012.4 0.0
18/03:00am 9.6 7.6 4.2 69 2.4 NNE 4 6 2 3 1012.4 1012.4 0.0
18/02:30am 10.4 8.7 6.0 74 2.0 NE 4 6 2 3 1012.6 1012.6 0.0
18/02:00am 8.9 7.9 5.8 81 1.4 CALM 0 0 0 0 1012.6 1012.6 0.0
18/01:30am 9.4 8.4 5.8 78 1.6 CALM 0 0 0 0 1012.5 1012.5 0.0
18/01:00am 9.6 8.4 4.8 72 2.2 CALM 0 0 0 0 1012.5 1012.5 0.0
18/12:30am 11.9 10.9 5.8 66 2.9 CALM 0 0 0 0 1012.7 1012.7 0.0
18/12:00am 12.8 11.8 5.5 61 3.4 CALM 0 0 0 0 1012.6 1012.6 0.0
 
Date/Time
EST
Temp
°C
App
Temp
°C
Dew
Point
°C
Rel
Hum
%
Delta-T
°C
Wind Press
QNH
hPa
Press
MSL
hPa
Rain since
9am
mm
Dir  Spd
km/h
Gust
km/h
Spd
kts
Gust
kts
17/11:30pm 16.5 15.3 6.6 52 4.9 SSE 2 2 1 1 1012.6 1012.6 0.0
17/11:00pm 17.4 15.7 7.5 52 5.0 ENE 6 6 3 3 1012.6 1012.6 0.0
17/10:30pm 17.2 15.7 7.0 51 5.1 S 4 9 2 5 1012.5 1012.5 0.0
17/10:00pm 17.7 14.9 6.9 49 5.4 SW 11 15 6 8 1012.1 1012.1 0.0
17/09:30pm 18.6 16.1 8.0 50 5.4 WSW 11 15 6 8 1011.9 1011.9 0.0
17/09:00pm 17.2 16.2 8.9 58 4.3 SW 4 7 2 4 1011.9 1011.9 0.0
17/08:30pm 18.7 18.5 10.3 58 4.5 SW 2 4 1 2 1011.7 1011.7 0.0
17/08:00pm 20.3 20.2 9.5 50 5.8 CALM 0 0 0 0 1011.4 1011.4 0.0
17/07:30pm 20.1 19.9 9.1 49 5.8 CALM 0 0 0 0 1011.1 1011.1 0.0
17/07:00pm 21.7 20.8 9.3 45 6.7 SW 4 7 2 4 1010.7 1010.7 0.0
17/06:30pm 22.8 22.3 9.2 42 7.3 SW 2 4 1 2 1010.1 1010.1 0.0
17/06:00pm 24.0 22.5 8.4 37 8.3 SW 6 11 3 6 1009.6 1009.5 0.0
17/05:30pm 25.4 23.3 8.4 34 9.2 WSW 9 13 5 7 1009.1 1009.0 0.0
17/05:00pm 28.1 24.9 8.4 29 10.8 W 15 28 8 15 1008.7 1008.6 0.0
17/04:30pm 29.1 25.1 8.2 27 11.4 WSW 19 32 10 17 1008.4 1008.3 0.0
17/04:00pm 30.0 25.5 8.4 26 11.9 W 22 35 12 19 1007.9 1007.8 0.0
17/03:30pm 30.5 26.2 7.7 24 12.5 W 20 35 11 19 1007.5 1007.4 0.0
17/03:00pm 30.6 26.4 8.3 25 12.3 W 20 35 11 19 1007.5 1007.4 0.0
17/02:30pm 31.1 27.0 8.8 25 12.5 WNW 20 35 11 19 1007.5 1007.4 0.0
17/02:00pm 31.0 27.5 8.7 25 12.5 WNW 17 24 9 13 1007.6 1007.5 0.0
17/01:30pm 31.3 28.2 8.9 25 12.5 WSW 15 32 8 17 1007.9 1007.8 0.0
17/01:18pm 30.3 27.1 11.3 31 11.0 WNW 19 39 10 21 1007.9 1007.8 0.0
17/01:00pm 29.9 29.0 11.4 32 10.7 W 7 11 4 6 1008.2 1008.1 0.0
17/12:30pm 29.6 29.1 12.1 34 10.2 NW 6 11 3 6 1008.6 1008.5 0.0
17/12:00pm 29.1 28.0 12.1 35 9.9 NNW 9 17 5 9 1009.2 1009.1 0.0
17/11:30am 27.9 27.2 11.9 37 9.3 NW 7 15 4 8 1010.1 1010.1 0.0
17/11:00am 26.3 26.0 12.7 43 7.9 WNW 6 9 3 5 1010.9 1010.9 0.0
17/10:30am 25.4 25.2 13.6 48 6.9 NW 7 11 4 6 1011.4 1011.4 0.0
17/10:00am 24.1 24.5 13.6 52 6.1 NW 4 9 2 5 1011.9 1011.9 0.0
17/09:30am 22.5 23.1 13.0 55 5.5 WNW 2 6 1 3 1012.1 1012.1 0.0
17/09:00am 20.2 22.1 15.8 76 2.6 CALM 0 0 0 0 1012.3 1012.3 0.0
17/08:30am 16.7 18.5 15.4 92 0.8 CALM 0 0 0 0 1012.4 1012.4 0.0
17/08:00am 14.1 14.9 13.8 98 0.2 SSE 2 6 1 3 1012.5 1012.5 0.0
17/07:30am 12.3 12.6 12.1 99 0.1 E 2 4 1 2 1012.4 1012.4 0.0
17/07:00am 9.3 9.1 9.0 98 0.1 CALM 0 0 0 0 1012.2 1012.2 0.0
17/06:30am 9.8 9.7 9.3 97 0.2 CALM 0 0 0 0 1011.9 1011.9 0.0
17/06:00am 9.5 9.3 8.9 96 0.3 CALM 0 0 0 0 1011.6 1011.6 0.0
17/05:30am 10.7 10.8 10.2 97 0.3 CALM 0 0 0 0 1011.2 1011.2 0.0
17/05:00am 12.1 12.6 11.6 97 0.3 CALM 0 0 0 0 1011.1 1011.1 0.0
17/04:30am 12.4 13.0 11.9 97 0.3 CALM 0 0 0 0 1011.0 1011.0 0.0
17/04:00am 13.0 13.8 12.5 97 0.3 CALM 0 2 0 1 1010.8 1010.8 0.0
17/03:30am 13.1 13.5 12.6 97 0.3 ESE 2 4 1 2 1010.8 1010.8 0.0
17/03:00am 13.0 13.4 12.5 97 0.3 SSE 2 4 1 2 1010.7 1010.7 0.0
17/02:30am 12.9 13.3 12.4 97 0.3 SSE 2 4 1 2 1010.9 1010.9 0.0
17/02:00am 13.1 13.9 12.6 97 0.3 CALM 0 0 0 0 1011.0 1011.0 0.0
17/01:30am 12.9 13.6 12.3 96 0.3 CALM 0 0 0 0 1011.2 1011.2 0.0
17/01:00am 13.2 14.0 12.4 95 0.4 CALM 0 4 0 2 1011.4 1011.4 0.0
17/12:30am 13.6 14.4 12.7 94 0.5 CALM 0 0 0 0 1011.3 1011.3 0.0
17/12:00am 13.2 13.8 11.9 92 0.7 CALM 0 0 0 0 1011.4 1011.4 0.0
 
Date/Time
EST
Temp
°C
App
Temp
°C
Dew
Point
°C
Rel
Hum
%
Delta-T
°C
Wind Press
QNH
hPa
Press
MSL
hPa
Rain since
9am
mm
Dir  Spd
km/h
Gust
km/h
Spd
kts
Gust
kts
16/11:30pm 14.3 15.2 13.0 92 0.7 CALM 0 0 0 0 1011.3 1011.3 0.0
16/11:00pm 15.4 16.7 14.1 92 0.7 CALM 0 0 0 0 1011.3 1011.3 0.0
16/10:30pm 15.1 16.2 13.5 90 0.9 CALM 0 0 0 0 1011.2 1011.2 0.0
16/10:00pm 15.2 16.2 13.2 88 1.1 CALM 0 0 0 0 1011.2 1011.2 0.0
16/09:30pm 15.0 15.7 12.1 83 1.6 CALM 0 2 0 1 1011.1 1011.1 0.0
16/09:00pm 16.2 17.0 12.7 80 1.9 CALM 0 4 0 2 1010.8 1010.8 0.0
16/08:30pm 18.3 18.9 14.2 77 2.4 N 4 4 2 2 1010.4 1010.4 0.0
16/08:00pm 19.4 20.4 14.4 73 2.9 N 2 4 1 2 1010.3 1010.3 0.0
16/07:30pm 20.5 22.1 14.8 70 3.3 CALM 0 0 0 0 1009.9 1009.9 0.0
16/07:00pm 21.9 22.8 15.0 65 4.1 N 4 7 2 4 1009.5 1009.4 0.0
16/06:30pm 23.6 24.2 15.4 60 4.9 NNW 6 17 3 9 1009.1 1009.0 0.0
16/06:00pm 24.5 24.1 15.1 55 5.7 NE 11 19 6 10 1008.4 1008.3 0.0
16/05:30pm 25.5 24.5 14.6 51 6.5 NE 13 24 7 13 1007.9 1007.8 0.0
16/05:00pm 27.6 26.5 13.2 41 8.5 NNE 11 22 6 12 1007.4 1007.3 0.0
16/04:30pm 28.1 26.8 13.6 41 8.6 NE 13 20 7 11 1007.3 1007.2 0.0
16/04:00pm 28.9 27.1 13.2 38 9.3 NNE 15 30 8 16 1007.0 1006.9 0.0
16/03:30pm 29.0 27.3 13.6 38 9.2 NE 15 28 8 15 1007.1 1007.0 0.0
16/03:00pm 30.0 28.2 12.0 33 10.5 NNE 13 22 7 12 1007.1 1007.0 0.0
16/02:30pm 29.9 27.5 11.4 32 10.7 NNE 15 24 8 13 1007.5 1007.4 0.0
16/02:00pm 30.2 27.7 9.7 28 11.6 NNE 13 22 7 12 1007.9 1007.8 0.0
16/01:30pm 30.6 27.9 8.9 26 12.1 NNW 13 24 7 13 1008.4 1008.3 0.0
16/01:00pm 29.9 26.7 8.3 26 11.9 NNW 15 26 8 14 1009.1 1009.0 0.0
16/12:30pm 29.1 26.1 7.7 26 11.6 N 13 22 7 12 1010.0 1010.0 0.0
16/12:00pm 28.0 25.0 7.8 28 10.9 N 13 24 7 13 1010.9 1010.9 0.0
16/11:30am 26.9 24.7 7.9 30 10.2 N 9 17 5 9 1011.9 1011.9 0.0
16/11:00am 25.3 23.7 8.7 35 9.0 NNW 7 15 4 8 1012.8 1012.8 0.0
16/10:30am 23.3 22.3 10.4 44 7.1 NW 6 15 3 8 1013.6 1013.6 0.0
16/10:00am 21.0 20.8 11.9 56 5.1 WNW 4 9 2 5 1014.0 1014.0 0.0
16/09:30am 18.8 19.1 12.3 66 3.6 W 2 6 1 3 1014.4 1014.4 0.0
16/09:00am 16.1 16.6 11.5 74 2.5 CALM 0 0 0 0 1014.5 1014.5 0.0
16/08:30am 13.5 13.8 10.9 84 1.4 CALM 0 0 0 0 1015.1 1015.1 0.0
16/08:00am 11.3 10.9 9.9 91 0.7 SW 2 6 1 3 1015.1 1015.1 0.0
16/07:30am 9.7 9.5 9.2 97 0.2 CALM 0 0 0 0 1014.9 1014.9 0.0
16/07:00am 9.3 8.7 9.0 98 0.1 ENE 2 6 1 3 1014.7 1014.7 0.0
16/06:30am 6.7 5.8 6.1 96 0.3 CALM 0 0 0 0 1014.8 1014.8 0.0
16/06:00am 6.7 5.8 6.0 95 0.3 CALM 0 0 0 0 1014.2 1014.2 0.0
16/05:30am 7.4 6.6 6.5 94 0.4 CALM 0 0 0 0 1014.0 1014.0 0.0
16/05:00am 7.8 7.1 6.9 94 0.4 CALM 0 0 0 0 1014.0 1014.0 0.0
16/04:30am 9.1 8.7 8.3 95 0.4 CALM 0 0 0 0 1014.0 1014.0 0.0
16/04:00am 9.2 8.8 8.3 94 0.4 CALM 0 0 0 0 1014.0 1014.0 0.0
16/03:30am 9.4 8.3 8.5 94 0.4 ESE 4 4 2 2 1014.0 1014.0 0.0
16/03:00am 9.2 8.8 8.1 93 0.5 CALM 0 0 0 0 1014.0 1014.0 0.0
16/02:30am 10.2 9.7 9.3 94 0.4 S 2 4 1 2 1014.2 1014.2 0.0
16/02:00am 10.6 10.6 9.7 94 0.5 CALM 0 2 0 1 1014.4 1014.4 0.0
16/01:30am 10.5 10.0 9.3 92 0.6 SSE 2 2 1 1 1014.7 1014.7 0.0
16/01:00am 10.2 9.9 8.5 89 0.8 CALM 0 0 0 0 1015.0 1015.0 0.0
16/12:30am 10.9 10.6 8.7 86 1.1 CALM 0 2 0 1 1015.4 1015.4 0.0
16/12:00am 12.5 12.5 11.2 92 0.7 NNE 2 4 1 2 1015.7 1015.7 0.0
 
Date/Time
EST
Temp
°C
App
Temp
°C
Dew
Point
°C
Rel
Hum
%
Delta-T
°C
Wind Press
QNH
hPa
Press
MSL
hPa
Rain since
9am
mm
Dir  Spd
km/h
Gust
km/h
Spd
kts
Gust
kts
15/11:30pm 12.1 12.4 11.0 93 0.6 CALM 0 0 0 0 1015.8 1015.8 0.0
15/11:00pm 11.7 11.1 10.4 92 0.7 SSE 4 4 2 2 1015.7 1015.7 0.0
15/10:30pm 11.4 11.4 9.7 89 0.9 CALM 0 0 0 0 1015.9 1015.9 0.0
15/10:00pm 11.4 11.2 9.1 86 1.1 CALM 0 0 0 0 1015.8 1015.8 0.0
15/09:30pm 12.2 12.0 8.9 80 1.7 CALM 0 0 0 0 1015.7 1015.7 0.0
15/09:00pm 13.7 13.7 9.7 77 2.1 CALM 0 0 0 0 1015.9 1015.9 0.0
15/08:30pm 14.6 14.4 9.0 69 2.9 CALM 0 0 0 0 1015.7 1015.7 0.0
15/08:00pm 15.8 15.7 9.5 66 3.3 CALM 0 0 0 0 1015.5 1015.5 0.0
15/07:30pm 16.6 16.3 8.8 60 4.0 CALM 0 0 0 0 1015.3 1015.3 0.0
15/07:00pm 17.4 17.2 9.1 58 4.3 CALM 0 0 0 0 1015.0 1015.0 0.0
15/06:30pm 19.3 19.1 8.9 51 5.5 CALM 0 0 0 0 1014.8 1014.8 0.0
15/06:00pm 21.1 20.3 9.7 48 6.1 NE 4 7 2 4 1014.5 1014.5 0.0
15/05:30pm 22.5 20.9 7.9 39 7.7 NE 6 11 3 6 1014.2 1014.2 0.0
15/05:00pm 24.6 22.4 5.4 29 9.7 NE 6 9 3 5 1014.0 1014.0 0.0
15/04:30pm 25.9 23.6 4.9 26 10.7 NNE 6 9 3 5 1014.2 1014.2 0.0
15/04:00pm 26.6 24.7 5.0 25 11.0 NNE 4 9 2 5 1014.0 1014.0 0.0
15/03:30pm 26.8 24.4 5.1 25 11.1 NNE 7 13 4 7 1014.0 1014.0 0.0
15/03:00pm 26.8 25.1 5.7 26 10.9 ENE 4 7 2 4 1014.2 1014.2 0.0
15/02:30pm 27.2 25.7 4.9 24 11.4 NNE 2 6 1 3 1014.2 1014.2 0.0
15/02:00pm 26.4 24.0 4.2 24 11.2 NE 6 13 3 7 1014.4 1014.4 0.0
15/01:30pm 26.4 24.1 4.8 25 11.0 N 6 9 3 5 1015.0 1015.0 0.0

Other Formats:

Comma delimited format used in spreadsheet applications
http://www.bom.gov.au/fwo/IDQ60801/IDQ60801.95575.axf

JavaScript Object Notation format (JSON) in row-major order
http://www.bom.gov.au/fwo/IDQ60801/IDQ60801.95575.json